KCUB/CUB METAR and TAF weather

Enter ICAO airport designator
Station Type Date Time Source
KCUB METAR 2022/06/29 00:53 UTC NOAA

KCUB 290053Z AUTO 18003KT 7SM -RA FEW065 SCT120 23/22 A3020 RMK AO2 SLP223 P0003 T02330217


Station Type Date Time Source
KCUB Decoded METAR 2022/06/29 00:53 UTC NOAA

OWENS DOWNTOWN AIRPORT, SC, United States (KCUB) 33-58N 081-00W 56M
Jun 28, 2022 - 08:53 PM EDT / 2022.06.29 0053 UTC
Wind: from the S (180 degrees) at 3 MPH (3 KT):0
Visibility: 7 mile(s):0
Sky conditions: partly cloudy
Weather: light rain
Precipitation last hour: 0.03 inches
Temperature: 73.9 F (23.3 C)
Dew Point: 71.1 F (21.7 C)
Relative Humidity: 90%
Pressure (altimeter): 30.2 in. Hg (1022 hPa)
ob: KCUB 290053Z AUTO 18003KT 7SM -RA FEW065 SCT120 23/22 A3020 RMK AO2 SLP223 P0003 T02330217
cycle: 1

Station Type Date Time Source
KCUB TAF 2022/06/28 22:18 UTC NOAA

TAF
AMD KCUB 282215Z 2822/2918 VRB05KT P6SM -SHRA BKN040
FM290600 VRB03KT P6SM SCT015

Example: see airport list